Time;durP1;ratioP1;P1;durP2;ratioP2;P2;SDS_P1;SDS_P2;PMS_P1;PMS_P2;Temp;Humidity;BMP_temperature;BMP_pressure;BME280_temperature;BME280_humidity;BME280_pressure;Samples;Min_cycle;Max_cycle;Signal;HPM_P1;HPM_P2
2023/05/14 00:02:19;;;;;;;29.10;20.90;;;;;;;-139.84;100.00;61778.28;5079403;28;20404;-73
2023/05/14 00:04:44;;;;;;;28.30;20.17;;;;;;;-139.84;100.00;61778.28;5046234;28;20021;-73
2023/05/14 00:07:10;;;;;;;29.97;21.03;;;;;;;-139.84;100.00;61778.28;5059851;28;20035;-73
2023/05/14 00:09:36;;;;;;;24.50;19.37;;;;;;;-139.84;100.00;61778.28;5066837;28;20016;-73
2023/05/14 00:12:01;;;;;;;32.67;22.03;;;;;;;-139.84;100.00;61778.28;5063010;28;20106;-72
2023/05/14 00:14:27;;;;;;;32.97;20.83;;;;;;;-139.84;100.00;61778.28;5066886;28;20111;-73
2023/05/14 00:16:52;;;;;;;36.67;20.77;;;;;;;-139.84;100.00;61778.28;5065526;28;20082;-73
2023/05/14 00:19:18;;;;;;;31.17;20.73;;;;;;;-139.84;100.00;61778.28;5061444;28;20029;-73
2023/05/14 00:21:46;;;;;;;31.87;19.80;;;;;;;-139.84;100.00;61778.28;5052427;28;20052;-73
2023/05/14 00:24:12;;;;;;;33.65;19.85;;;;;;;-139.84;100.00;61778.28;5051542;28;20028;-73
2023/05/14 00:26:37;;;;;;;32.57;19.87;;;;;;;-139.84;100.00;61778.28;5065539;28;20036;-73
2023/05/14 00:29:03;;;;;;;33.27;20.10;;;;;;;-139.84;100.00;61778.28;5065691;28;20391;-72
2023/05/14 00:31:28;;;;;;;31.87;19.70;;;;;;;-139.84;100.00;61778.28;5063286;28;20029;-72
2023/05/14 00:33:55;;;;;;;26.03;19.07;;;;;;;-139.84;100.00;61778.28;5052283;28;20430;-73
2023/05/14 00:36:20;;;;;;;27.67;19.45;;;;;;;-139.84;100.00;61778.28;5060177;28;20458;-73
2023/05/14 00:38:46;;;;;;;29.17;19.80;;;;;;;-139.84;100.00;61778.28;5066560;28;20024;-73
2023/05/14 00:41:11;;;;;;;25.00;19.47;;;;;;;-139.84;100.00;61778.28;5046943;28;20056;-74
2023/05/14 00:43:37;;;;;;;24.77;17.73;;;;;;;-139.84;100.00;61778.28;5065335;28;21809;-73
2023/05/14 00:46:02;;;;;;;29.00;19.00;;;;;;;-139.84;100.00;61778.28;5065936;28;20025;-73
2023/05/14 00:48:28;;;;;;;31.97;20.13;;;;;;;-139.84;100.00;61778.28;5050269;28;20045;-73
2023/05/14 00:50:54;;;;;;;24.73;18.57;;;;;;;-139.84;100.00;61778.28;5065646;28;20056;-73
2023/05/14 00:53:20;;;;;;;30.57;19.53;;;;;;;-139.84;100.00;61778.28;5043805;28;20033;-73
2023/05/14 00:55:47;;;;;;;29.00;19.50;;;;;;;-139.84;100.00;61778.28;5046831;28;20028;-74
2023/05/14 00:58:13;;;;;;;31.52;18.77;;;;;;;-139.84;100.00;61778.28;5065629;28;20020;-73
2023/05/14 01:00:39;;;;;;;33.87;18.70;;;;;;;-139.84;100.00;61778.28;5066947;28;20036;-73
2023/05/14 01:03:06;;;;;;;27.42;17.63;;;;;;;-139.84;100.00;61778.28;5053174;28;20029;-72
2023/05/14 01:05:59;;;;;;;28.73;18.60;;;;;;;-139.84;100.00;61778.28;5049352;28;20039;-72
2023/05/14 01:08:37;;;;;;;35.85;18.75;;;;;;;-139.84;100.00;61778.28;5048982;28;20050;-74
2023/05/14 01:11:05;;;;;;;;;;;;;;;-139.84;100.00;61778.28;5064460;28;20028;-73
2023/05/14 01:13:56;;;;;;;26.25;16.48;;;;;;;-139.84;100.00;61778.28;5061247;28;19954;-73
2023/05/14 01:16:26;;;;;;;30.15;17.67;;;;;;;-139.84;100.00;61778.28;5049627;28;20044;-72
2023/05/14 01:18:54;;;;;;;23.60;16.45;;;;;;;-139.84;100.00;61778.28;5071688;28;20029;-73
2023/05/14 01:21:34;;;;;;;30.83;18.20;;;;;;;-139.84;100.00;61778.28;5064063;28;20033;-73
2023/05/14 01:24:00;;;;;;;30.83;18.60;;;;;;;-139.84;100.00;61778.28;5074832;28;20064;-73
2023/05/14 01:26:25;;;;;;;29.13;17.77;;;;;;;-139.84;100.00;61778.28;5049077;28;20072;-73
2023/05/14 01:28:54;;;;;;;28.03;17.80;;;;;;;-139.84;100.00;61778.28;5064059;28;20094;-73
2023/05/14 01:31:26;;;;;;;30.50;18.15;;;;;;;-139.84;100.00;61778.28;5065811;28;20035;-73
2023/05/14 01:33:56;;;;;;;29.70;17.20;;;;;;;-139.84;100.00;61778.28;5045774;28;20083;-73
2023/05/14 01:36:22;;;;;;;25.55;17.65;;;;;;;-139.84;100.00;61778.28;5048046;28;20484;-73
2023/05/14 01:38:50;;;;;;;28.37;17.03;;;;;;;-139.84;100.00;61778.28;5058546;28;20078;-73
2023/05/14 01:41:16;;;;;;;33.05;17.58;;;;;;;-139.84;100.00;61778.28;5063359;28;20417;-73
2023/05/14 01:43:42;;;;;;;;;;;;;;;-139.84;100.00;61778.28;5062639;28;20468;-72
2023/05/14 01:46:08;;;;;;;30.58;16.48;;;;;;;-139.84;100.00;61778.28;5057348;28;19919;-72
2023/05/14 01:48:33;;;;;;;28.87;17.70;;;;;;;-139.84;100.00;61778.28;5046254;28;20550;-72
2023/05/14 01:50:59;;;;;;;35.30;19.20;;;;;;;-139.84;100.00;61778.28;5065187;28;20154;-73
2023/05/14 01:53:25;;;;;;;30.27;17.17;;;;;;;-139.84;100.00;61778.28;5060742;28;20563;-72
2023/05/14 01:55:50;;;;;;;28.67;17.73;;;;;;;-139.84;100.00;61778.28;5066809;28;20492;-72
2023/05/14 01:58:15;;;;;;;31.23;18.50;;;;;;;-139.84;100.00;61778.28;5061084;28;20061;-73
2023/05/14 02:00:41;;;;;;;30.63;19.13;;;;;;;-139.84;100.00;61778.28;5062267;28;20434;-73
2023/05/14 02:03:07;;;;;;;38.57;20.07;;;;;;;-139.84;100.00;61778.28;5065151;28;20028;-73
2023/05/14 02:05:32;;;;;;;39.13;21.08;;;;;;;-139.84;100.00;61778.28;5048195;28;20032;-73
2023/05/14 02:07:58;;;;;;;35.00;19.03;;;;;;;-139.84;100.00;61778.28;5063157;28;20074;-73
2023/05/14 02:10:23;;;;;;;36.37;19.17;;;;;;;-139.84;100.00;61778.28;5067825;28;20044;-72
2023/05/14 02:12:49;;;;;;;28.13;18.80;;;;;;;-139.84;100.00;61778.28;5062401;28;20058;-72
2023/05/14 02:15:15;;;;;;;28.57;18.90;;;;;;;-139.84;100.00;61778.28;5059356;28;20040;-73
2023/05/14 02:17:41;;;;;;;35.03;19.92;;;;;;;-139.84;100.00;61778.28;5046565;28;20040;-73
2023/05/14 02:20:08;;;;;;;29.57;20.27;;;;;;;-139.84;100.00;61778.28;5065552;28;20016;-75
2023/05/14 02:22:36;;;;;;;36.17;19.73;;;;;;;-139.84;100.00;61778.28;5060925;28;20028;-73
2023/05/14 02:25:01;;;;;;;26.88;20.05;;;;;;;-139.84;100.00;61778.28;5050274;28;20353;-73
2023/05/14 02:27:26;;;;;;;33.27;21.27;;;;;;;-139.84;100.00;61778.28;5072641;28;20086;-73
2023/05/14 02:29:52;;;;;;;30.73;20.37;;;;;;;-139.84;100.00;61778.28;5059149;28;20028;-72
2023/05/14 02:32:17;;;;;;;33.37;21.13;;;;;;;-139.84;100.00;61778.28;5048440;28;20028;-73
2023/05/14 02:34:43;;;;;;;29.58;20.80;;;;;;;-139.84;100.00;61778.28;5063948;28;20027;-73
2023/05/14 02:37:08;;;;;;;34.63;21.37;;;;;;;-139.84;100.00;61778.28;5062653;28;20059;-73
2023/05/14 02:39:33;;;;;;;32.13;21.37;;;;;;;-139.84;100.00;61778.28;5046881;28;20036;-73
2023/05/14 02:41:59;;;;;;;37.90;21.93;;;;;;;-139.84;100.00;61778.28;5056964;28;20020;-73
2023/05/14 02:44:24;;;;;;;29.90;21.03;;;;;;;-139.84;100.00;61778.28;5043931;28;20031;-73
2023/05/14 02:46:50;;;;;;;29.75;19.98;;;;;;;-139.84;100.00;61778.28;5067056;28;20028;-73
2023/05/14 02:49:15;;;;;;;31.93;19.43;;;;;;;-139.84;100.00;61778.28;5057018;28;20454;-73
2023/05/14 02:51:41;;;;;;;35.10;20.27;;;;;;;-139.84;100.00;61778.28;5058466;28;20039;-71
2023/05/14 02:54:06;;;;;;;29.50;19.43;;;;;;;-139.84;100.00;61778.28;5059792;28;20024;-73
2023/05/14 02:56:32;;;;;;;30.40;21.25;;;;;;;-139.84;100.00;61778.28;5062505;28;20037;-73
2023/05/14 02:58:57;;;;;;;32.60;20.03;;;;;;;-139.84;100.00;61778.28;5061646;28;20095;-72
2023/05/14 03:01:23;;;;;;;31.20;20.30;;;;;;;-139.84;100.00;61778.28;5061131;28;20583;-72
2023/05/14 03:03:48;;;;;;;33.57;20.27;;;;;;;-139.84;100.00;61778.28;5047354;28;20495;-73
2023/05/14 03:06:13;;;;;;;26.90;18.93;;;;;;;-139.84;100.00;61778.28;5065020;28;20032;-73
2023/05/14 03:08:39;;;;;;;31.93;19.80;;;;;;;-139.84;100.00;61778.28;5054524;28;20071;-73
2023/05/14 03:11:05;;;;;;;28.10;18.80;;;;;;;-139.84;100.00;61778.28;5066946;28;20056;-73
2023/05/14 03:13:31;;;;;;;38.42;18.80;;;;;;;-139.84;100.00;61778.28;5045304;28;20047;-73
2023/05/14 03:15:56;;;;;;;30.03;18.73;;;;;;;-139.84;100.00;61778.28;5053516;28;20024;-73
2023/05/14 03:18:22;;;;;;;29.53;19.30;;;;;;;-139.84;100.00;61778.28;5067401;28;20027;-72
2023/05/14 03:20:47;;;;;;;31.17;18.97;;;;;;;-139.84;100.00;61778.28;5066889;28;20451;-73
2023/05/14 03:23:14;;;;;;;34.60;20.90;;;;;;;-139.84;100.00;61778.28;5065067;28;20083;-72
2023/05/14 03:25:40;;;;;;;34.55;19.50;;;;;;;-139.84;100.00;61778.28;5062459;28;20499;-72
2023/05/14 03:28:05;;;;;;;29.47;20.30;;;;;;;-139.84;100.00;61778.28;5061315;28;20029;-73
2023/05/14 03:30:31;;;;;;;27.93;20.00;;;;;;;-139.84;100.00;61778.28;5063345;28;20036;-72
2023/05/14 03:32:56;;;;;;;35.50;20.70;;;;;;;-139.84;100.00;61778.28;5048245;28;20043;-72
2023/05/14 03:35:22;;;;;;;32.33;21.13;;;;;;;-139.84;100.00;61778.28;5046403;28;20098;-72
2023/05/14 03:37:47;;;;;;;34.88;21.25;;;;;;;-139.84;100.00;61778.28;5060760;28;20047;-73
2023/05/14 03:40:13;;;;;;;28.70;20.87;;;;;;;-139.84;100.00;61778.28;5064760;28;20033;-73
2023/05/14 03:42:39;;;;;;;29.63;21.60;;;;;;;-139.84;100.00;61778.28;5061909;28;20052;-72
2023/05/14 03:45:05;;;;;;;31.30;21.35;;;;;;;-139.84;100.00;61778.28;5048338;28;20086;-74
2023/05/14 03:47:31;;;;;;;32.40;21.00;;;;;;;-139.84;100.00;61778.28;5059391;28;20476;-72
2023/05/14 03:49:57;;;;;;;34.73;21.10;;;;;;;-139.84;100.00;61778.28;5064163;28;20317;-72
2023/05/14 03:52:22;;;;;;;31.47;22.47;;;;;;;-139.84;100.00;61778.28;5071576;28;20136;-72
2023/05/14 03:54:47;;;;;;;38.57;22.77;;;;;;;-139.84;100.00;61778.28;5069589;28;20040;-72
2023/05/14 03:57:13;;;;;;;42.23;21.83;;;;;;;-139.84;100.00;61778.28;5069001;28;20472;-73
2023/05/14 03:59:38;;;;;;;32.10;21.73;;;;;;;-139.84;100.00;61778.28;5042309;28;20393;-73
2023/05/14 04:02:04;;;;;;;30.17;21.90;;;;;;;-139.84;100.00;61778.28;5064902;28;20037;-73
2023/05/14 04:04:29;;;;;;;30.87;21.10;;;;;;;-139.84;100.00;61778.28;5067222;28;20035;-73
2023/05/14 04:06:55;;;;;;;32.33;21.93;;;;;;;-139.84;100.00;61778.28;5065486;28;20064;-73
2023/05/14 04:09:20;;;;;;;34.27;21.83;;;;;;;-139.84;100.00;61778.28;5050375;28;20503;-73
2023/05/14 04:11:45;;;;;;;33.93;23.50;;;;;;;-139.84;100.00;61778.28;5064658;28;20032;-73
2023/05/14 04:14:11;;;;;;;30.23;22.03;;;;;;;-139.84;100.00;61778.28;5045493;28;20037;-73
2023/05/14 04:16:36;;;;;;;40.67;22.73;;;;;;;-139.84;100.00;61778.28;5050170;28;20028;-73
2023/05/14 04:19:05;;;;;;;31.37;21.37;;;;;;;-139.84;100.00;61778.28;5068044;28;20023;-74
2023/05/14 04:21:30;;;;;;;36.35;22.17;;;;;;;-139.84;100.00;61778.28;5053400;28;20085;-73
2023/05/14 04:23:56;;;;;;;35.97;21.13;;;;;;;-139.84;100.00;61778.28;5064195;28;20460;-73
2023/05/14 04:26:21;;;;;;;35.00;22.73;;;;;;;-139.84;100.00;61778.28;5062853;28;20051;-73
2023/05/14 04:28:47;;;;;;;35.58;23.02;;;;;;;-139.84;100.00;61778.28;5062415;28;20387;-74
2023/05/14 04:31:12;;;;;;;35.23;22.70;;;;;;;-139.84;100.00;61778.28;5047755;28;20028;-73
2023/05/14 04:33:38;;;;;;;31.17;22.60;;;;;;;-139.84;100.00;61778.28;5045912;28;20027;-73
2023/05/14 04:36:04;;;;;;;40.87;21.50;;;;;;;-139.84;100.00;61778.28;5066770;28;20471;-73
2023/05/14 04:38:30;;;;;;;32.90;22.37;;;;;;;-139.84;100.00;61778.28;5062603;28;20040;-73
2023/05/14 04:40:57;;;;;;;33.30;22.17;;;;;;;-139.84;100.00;61778.28;5064778;28;20033;-72
2023/05/14 04:43:23;;;;;;;31.15;20.65;;;;;;;-139.84;100.00;61778.28;5062080;28;21580;-72
2023/05/14 04:45:48;;;;;;;38.87;22.17;;;;;;;-139.84;100.00;61778.28;5046724;28;20031;-73
2023/05/14 04:48:14;;;;;;;34.03;21.53;;;;;;;-139.84;100.00;61778.28;5060994;28;20096;-72
2023/05/14 04:50:39;;;;;;;41.50;23.30;;;;;;;-139.84;100.00;61778.28;5049680;28;20076;-72
2023/05/14 04:53:04;;;;;;;39.33;22.77;;;;;;;-139.84;100.00;61778.28;5052199;28;20051;-73
2023/05/14 04:55:30;;;;;;;37.17;22.70;;;;;;;-139.84;100.00;61778.28;5068867;28;20353;-72
2023/05/14 04:57:55;;;;;;;40.50;23.17;;;;;;;-139.84;100.00;61778.28;5062886;28;20074;-73
2023/05/14 05:00:22;;;;;;;32.63;21.07;;;;;;;-139.84;100.00;61778.28;5057881;28;20464;-72
2023/05/14 05:02:47;;;;;;;43.85;22.73;;;;;;;-139.84;100.00;61778.28;5065261;28;20078;-72
2023/05/14 05:05:13;;;;;;;30.53;21.00;;;;;;;-139.84;100.00;61778.28;5062238;28;20032;-72
2023/05/14 05:07:38;;;;;;;30.42;21.65;;;;;;;-139.84;100.00;61778.28;5043281;28;20108;-71
2023/05/14 05:10:06;;;;;;;31.83;21.37;;;;;;;-139.84;100.00;61778.28;5060572;28;20056;-74
2023/05/14 05:12:34;;;;;;;34.75;22.95;;;;;;;-139.84;100.00;61778.28;5047596;28;20032;-73
2023/05/14 05:14:59;;;;;;;31.40;22.00;;;;;;;-139.84;100.00;61778.28;5063115;28;20033;-72
2023/05/14 05:17:25;;;;;;;32.57;22.30;;;;;;;-139.84;100.00;61778.28;5070321;28;20037;-72
2023/05/14 05:19:50;;;;;;;43.10;23.07;;;;;;;-139.84;100.00;61778.28;5065570;28;20017;-73
2023/05/14 05:22:15;;;;;;;36.30;22.37;;;;;;;-139.84;100.00;61778.28;5063358;28;20028;-73
2023/05/14 05:24:41;;;;;;;30.67;19.93;;;;;;;-139.84;100.00;61778.28;5050935;28;20538;-72
2023/05/14 05:27:07;;;;;;;41.10;22.10;;;;;;;-139.84;100.00;61778.28;5051411;28;20029;-72
2023/05/14 05:29:34;;;;;;;30.87;21.07;;;;;;;-139.84;100.00;61778.28;5043291;28;20056;-72
2023/05/14 05:31:59;;;;;;;34.45;20.10;;;;;;;-139.84;100.00;61778.28;5064779;28;20472;-72
2023/05/14 05:34:25;;;;;;;34.87;19.63;;;;;;;-139.84;100.00;61778.28;5066346;28;20029;-72
2023/05/14 05:36:50;;;;;;;25.03;19.67;;;;;;;-139.84;100.00;61778.28;5062989;28;20073;-72
2023/05/14 05:39:16;;;;;;;28.43;19.53;;;;;;;-139.84;100.00;61778.28;5046333;28;20174;-72
2023/05/14 05:41:42;;;;;;;30.47;18.27;;;;;;;-139.84;100.00;61778.28;5063502;28;20039;-72
2023/05/14 05:44:07;;;;;;;26.10;18.10;;;;;;;-139.84;100.00;61778.28;5040197;28;20039;-73
2023/05/14 05:46:33;;;;;;;29.90;18.20;;;;;;;-139.84;100.00;61778.28;5052615;28;20032;-72
2023/05/14 05:48:58;;;;;;;27.77;18.93;;;;;;;-139.84;100.00;61778.28;5063445;28;20444;-73
2023/05/14 05:51:24;;;;;;;25.03;17.90;;;;;;;-139.84;100.00;61778.28;5048597;28;20048;-72
2023/05/14 05:53:49;;;;;;;30.27;16.90;;;;;;;-139.84;100.00;61778.28;5059409;28;20560;-73
2023/05/14 05:56:14;;;;;;;23.73;16.57;;;;;;;-139.84;100.00;61778.28;5079098;28;20383;-74
2023/05/14 05:58:40;;;;;;;25.00;16.60;;;;;;;-139.84;100.00;61778.28;5048395;28;20123;-74
2023/05/14 06:01:05;;;;;;;26.60;17.47;;;;;;;-139.84;100.00;61778.28;5069234;28;20511;-73
2023/05/14 06:03:31;;;;;;;27.17;16.27;;;;;;;-139.84;100.00;61778.28;5065617;28;20043;-72
2023/05/14 06:05:56;;;;;;;26.23;16.03;;;;;;;-139.84;100.00;61778.28;5064416;28;20036;-73
2023/05/14 06:08:21;;;;;;;24.23;15.57;;;;;;;-139.84;100.00;61778.28;5068052;28;20069;-75
2023/05/14 06:10:47;;;;;;;24.90;15.53;;;;;;;-139.84;100.00;61778.28;5066890;28;20036;-73
2023/05/14 06:13:12;;;;;;;19.77;14.00;;;;;;;-139.84;100.00;61778.28;5070135;28;20035;-73
2023/05/14 06:15:38;;;;;;;22.63;14.53;;;;;;;-139.84;100.00;61778.28;5077716;28;20028;-73
2023/05/14 06:18:03;;;;;;;21.77;14.87;;;;;;;-139.84;100.00;61778.28;5058828;28;20062;-74
2023/05/14 06:20:28;;;;;;;26.93;15.73;;;;;;;-139.84;100.00;61778.28;5065063;28;20024;-73
2023/05/14 06:22:54;;;;;;;27.17;16.57;;;;;;;-139.84;100.00;61778.28;5062611;28;20036;-73
2023/05/14 06:25:19;;;;;;;30.30;18.27;;;;;;;-139.84;100.00;61778.28;5074669;28;20037;-72
2023/05/14 06:27:45;;;;;;;29.70;18.37;;;;;;;-139.84;100.00;61778.28;5065849;28;20406;-72
2023/05/14 06:30:11;;;;;;;27.47;17.53;;;;;;;-139.84;100.00;61778.28;5044499;28;20043;-72
2023/05/14 06:32:37;;;;;;;31.10;19.23;;;;;;;-139.84;100.00;61778.28;5066659;28;20086;-72
2023/05/14 06:35:03;;;;;;;33.25;21.63;;;;;;;-139.84;100.00;61778.28;5063669;28;20277;-72
2023/05/14 06:37:29;;;;;;;31.70;21.00;;;;;;;-139.84;100.00;61778.28;5062792;28;20040;-72
2023/05/14 06:39:54;;;;;;;32.33;22.70;;;;;;;-139.84;100.00;61778.28;5065742;28;20100;-72
2023/05/14 06:42:19;;;;;;;34.70;21.87;;;;;;;-139.84;100.00;61778.28;5063285;28;20025;-73
2023/05/14 06:44:45;;;;;;;36.83;23.63;;;;;;;-139.84;100.00;61778.28;5067312;28;20095;-72
2023/05/14 06:47:10;;;;;;;39.27;23.30;;;;;;;-139.84;100.00;61778.28;5059548;28;20086;-72
2023/05/14 06:49:38;;;;;;;32.10;24.15;;;;;;;-139.84;100.00;61778.28;5061295;28;20059;-71
2023/05/14 06:52:04;;;;;;;32.57;24.43;;;;;;;-139.84;100.00;61778.28;5065157;28;20028;-71
2023/05/14 06:54:30;;;;;;;34.00;23.53;;;;;;;-139.84;100.00;61778.28;5043848;28;20032;-72
2023/05/14 06:56:55;;;;;;;35.20;24.57;;;;;;;-139.84;100.00;61778.28;5065191;28;20691;-72
2023/05/14 06:59:21;;;;;;;35.57;24.30;;;;;;;-139.84;100.00;61778.28;5063863;28;20474;-72
2023/05/14 07:01:46;;;;;;;38.47;24.73;;;;;;;-139.84;100.00;61778.28;5061227;28;20157;-72
2023/05/14 07:04:11;;;;;;;32.20;23.93;;;;;;;-139.84;100.00;61778.28;5064041;28;20036;-72
2023/05/14 07:06:37;;;;;;;33.33;25.03;;;;;;;-139.84;100.00;61778.28;5049971;28;20127;-71
2023/05/14 07:09:02;;;;;;;34.87;25.10;;;;;;;-139.84;100.00;61778.28;5054292;28;20025;-72
2023/05/14 07:11:28;;;;;;;38.30;24.93;;;;;;;-139.84;100.00;61778.28;5063306;28;20033;-72
2023/05/14 07:13:53;;;;;;;36.03;25.27;;;;;;;-139.84;100.00;61778.28;5045082;28;20032;-71
2023/05/14 07:16:19;;;;;;;37.70;25.50;;;;;;;-139.84;100.00;61778.28;5085226;28;20361;-70
2023/05/14 07:18:45;;;;;;;44.83;27.07;;;;;;;-139.84;100.00;61778.28;5064323;28;20071;-72
2023/05/14 07:21:10;;;;;;;39.67;24.23;;;;;;;-139.84;100.00;61778.28;5064681;28;20445;-71
2023/05/14 07:23:37;;;;;;;38.23;25.87;;;;;;;-139.84;100.00;61778.28;5051458;28;20028;-72
2023/05/14 07:26:04;;;;;;;36.42;25.92;;;;;;;-139.84;100.00;61778.28;5046905;28;20028;-71
2023/05/14 07:28:29;;;;;;;39.90;26.25;;;;;;;-139.84;100.00;61778.28;5060482;28;20111;-69
2023/05/14 07:30:55;;;;;;;39.20;24.93;;;;;;;-139.84;100.00;61778.28;5048156;28;20437;-72
2023/05/14 07:33:21;;;;;;;40.03;26.50;;;;;;;-139.84;100.00;61778.28;5062024;28;20029;-72
2023/05/14 07:35:46;;;;;;;42.50;27.02;;;;;;;-139.84;100.00;61778.28;5040891;28;20057;-72
2023/05/14 07:38:12;;;;;;;35.23;24.93;;;;;;;-139.84;100.00;61778.28;5046905;28;20032;-73
2023/05/14 07:40:37;;;;;;;39.00;25.20;;;;;;;-139.84;100.00;61778.28;5065341;28;20070;-72
2023/05/14 07:43:03;;;;;;;41.23;26.03;;;;;;;-139.84;100.00;61778.28;5044146;28;20029;-71
2023/05/14 07:45:28;;;;;;;40.37;25.60;;;;;;;-139.84;100.00;61778.28;5066907;28;20035;-72
2023/05/14 07:47:53;;;;;;;34.30;24.27;;;;;;;-139.84;100.00;61778.28;5057151;28;20131;-72
2023/05/14 07:50:19;;;;;;;32.50;24.70;;;;;;;-139.84;100.00;61778.28;5065048;28;20056;-72
2023/05/14 07:52:44;;;;;;;40.60;23.53;;;;;;;-139.84;100.00;61778.28;5061744;28;20100;-71
2023/05/14 07:55:11;;;;;;;30.63;22.93;;;;;;;-139.84;100.00;61778.28;5051201;28;20381;-71
2023/05/14 07:57:37;;;;;;;33.05;23.67;;;;;;;-139.84;100.00;61778.28;5050926;28;20099;-72
2023/05/14 08:00:06;;;;;;;31.90;23.23;;;;;;;-139.84;100.00;61778.28;5071196;28;20020;-72
2023/05/14 08:02:32;;;;;;;33.05;23.52;;;;;;;-139.84;100.00;61778.28;5065219;28;20047;-72
2023/05/14 08:04:58;;;;;;;35.10;23.80;;;;;;;-139.84;100.00;61778.28;5069347;28;20334;-72
2023/05/14 08:07:23;;;;;;;38.73;23.93;;;;;;;-139.84;100.00;61778.28;5061670;28;20029;-71
2023/05/14 08:09:49;;;;;;;40.07;26.00;;;;;;;-139.84;100.00;61778.28;5064949;28;20084;-72
2023/05/14 08:12:15;;;;;;;39.87;24.00;;;;;;;-139.84;100.00;61778.28;5065840;28;20116;-72
2023/05/14 08:14:40;;;;;;;35.03;23.20;;;;;;;-139.84;100.00;61778.28;5067906;28;20136;-71
2023/05/14 08:17:05;;;;;;;33.97;24.40;;;;;;;-139.84;100.00;61778.28;5065572;28;20086;-72
2023/05/14 08:19:31;;;;;;;30.73;22.93;;;;;;;-139.84;100.00;61778.28;5049033;28;20025;-73
2023/05/14 08:21:57;;;;;;;34.77;24.47;;;;;;;-139.84;100.00;61778.28;5069186;28;20024;-72
2023/05/14 08:24:22;;;;;;;33.23;23.93;;;;;;;-139.84;100.00;61778.28;5044488;28;20017;-72
2023/05/14 08:26:47;;;;;;;34.57;23.93;;;;;;;-139.84;100.00;61778.28;5066018;28;20032;-73
2023/05/14 08:33:30;;;;;;;35.30;25.27;;;;;;;16.22;90.38;102008.16;5064296;27;1305494;-73
2023/05/14 08:35:57;;;;;;;38.47;24.53;;;;;;;16.14;88.64;102011.09;5094063;28;20060;-73
2023/05/14 08:38:22;;;;;;;33.95;24.48;;;;;;;16.66;87.32;101995.56;5097907;28;20028;-72
2023/05/14 08:40:56;;;;;;;36.27;24.23;;;;;;;16.67;86.51;102001.97;5091321;28;20031;-73
2023/05/14 08:43:25;;;;;;;31.20;24.10;;;;;;;16.73;85.04;101999.22;5083718;28;20055;-73
2023/05/14 08:45:55;;;;;;;31.98;22.83;;;;;;;17.00;84.75;101995.44;5089763;28;20028;-72
2023/05/14 08:48:22;;;;;;;32.60;22.63;;;;;;;16.99;84.58;101987.34;5098423;28;20100;-73
2023/05/14 08:50:48;;;;;;;27.73;21.60;;;;;;;16.98;84.20;101996.72;5076207;28;20032;-73
2023/05/14 08:53:13;;;;;;;29.33;22.45;;;;;;;17.48;82.49;101987.81;5079910;28;20499;-73
2023/05/14 08:55:39;;;;;;;33.63;22.60;;;;;;;16.71;84.79;101983.91;5092231;28;20035;-72
2023/05/14 08:58:04;;;;;;;34.87;23.37;;;;;;;16.78;84.55;101973.69;5076917;28;20074;-72
2023/05/14 09:00:30;;;;;;;37.13;24.07;;;;;;;17.06;84.74;101975.22;5078425;28;20318;-72
2023/05/14 09:02:56;;;;;;;35.70;23.90;;;;;;;17.10;84.17;101979.28;5099370;28;20027;-72
2023/05/14 09:05:23;;;;;;;32.83;22.75;;;;;;;17.49;83.59;101983.97;5089108;28;20039;-73
2023/05/14 09:07:48;;;;;;;33.63;21.70;;;;;;;17.11;83.30;101978.19;5097567;28;20510;-73
2023/05/14 09:10:15;;;;;;;31.53;23.73;;;;;;;17.62;81.26;101973.72;5069753;28;20024;-72
2023/05/14 09:12:40;;;;;;;34.17;23.35;;;;;;;17.85;81.68;101968.56;5092911;28;20483;-72
2023/05/14 09:15:06;;;;;;;29.47;22.37;;;;;;;17.91;80.36;101964.91;5091172;28;20028;-73
2023/05/14 09:17:32;;;;;;;36.73;22.07;;;;;;;18.14;80.67;101962.47;5094604;28;20032;-72
2023/05/14 09:19:58;;;;;;;32.50;21.40;;;;;;;18.19;79.64;101972.94;5096488;28;20035;-72
2023/05/14 09:22:23;;;;;;;32.30;21.27;;;;;;;17.77;82.05;101970.72;5093536;28;20472;-72
2023/05/14 09:25:06;;;;;;;26.20;19.17;;;;;;;18.45;79.93;101964.50;5095306;28;20024;-72
2023/05/14 09:27:33;;;;;;;31.48;20.45;;;;;;;18.17;79.57;101966.75;5092495;28;20058;-73
2023/05/14 09:30:11;;;;;;;37.42;18.20;;;;;;;18.47;79.09;101963.22;5092834;28;20043;-72
2023/05/14 09:32:42;;;;;;;22.90;15.90;;;;;;;18.48;77.17;101969.63;5093162;28;20567;-69
2023/05/14 09:35:22;;;;;;;23.90;16.67;;;;;;;18.32;78.74;101959.91;5085867;28;20387;-72
2023/05/14 09:37:50;;;;;;;21.15;16.42;;;;;;;18.59;77.41;101955.03;5089444;28;20031;-72
2023/05/14 09:40:17;;;;;;;25.02;16.33;;;;;;;18.72;77.87;101946.66;5087904;28;20028;-72
2023/05/14 09:42:43;;;;;;;27.58;16.35;;;;;;;18.99;76.34;101945.38;5088718;28;20112;-72
2023/05/14 09:45:09;;;;;;;23.67;15.30;;;;;;;18.95;75.33;101941.34;5044216;28;20115;-70
2023/05/14 09:47:36;;;;;;;25.75;18.83;;;;;;;18.66;74.81;101945.59;5057964;28;20527;-70
2023/05/14 09:50:02;;;;;;;23.00;16.58;;;;;;;19.28;74.95;101934.47;5054633;28;20063;-71
2023/05/14 09:52:28;;;;;;;27.05;18.20;;;;;;;19.27;75.22;101943.03;5077593;28;20028;-71
2023/05/14 09:54:53;;;;;;;23.23;16.60;;;;;;;19.54;74.05;101936.97;5076929;28;20411;-72
2023/05/14 09:57:19;;;;;;;30.97;17.97;;;;;;;19.58;72.90;101951.28;5049348;28;20024;-70
2023/05/14 09:59:45;;;;;;;25.70;16.73;;;;;;;19.35;73.57;101939.94;5050667;28;20037;-71
2023/05/14 10:02:37;;;;;;;22.53;15.53;;;;;;;19.17;74.84;101942.66;5057956;28;20028;-70
2023/05/14 10:05:06;;;;;;;25.60;15.43;;;;;;;19.38;72.08;101933.94;5062670;28;20510;-70
2023/05/14 10:07:53;;;;;;;17.75;13.73;;;;;;;19.60;73.99;101941.63;5076794;28;20038;-70
2023/05/14 10:10:20;;;;;;;21.17;16.03;;;;;;;19.81;72.62;101937.56;5076190;28;20032;-71
2023/05/14 10:12:56;;;;;;;23.90;15.43;;;;;;;19.90;73.23;101934.22;5080293;28;20029;-70
2023/05/14 10:15:28;;;;;;;26.02;14.23;;;;;;;20.31;70.75;101930.75;5072225;28;20036;-70
2023/05/14 10:18:01;;;;;;;24.20;14.52;;;;;;;20.14;70.35;101930.56;5084828;28;20047;-70
2023/05/14 10:20:27;;;;;;;20.40;15.45;;;;;;;20.67;69.35;101934.31;5079525;28;20242;-70
2023/05/14 10:22:53;;;;;;;21.52;14.10;;;;;;;21.05;67.46;101929.22;5083737;28;20067;-70
2023/05/14 10:25:18;;;;;;;26.80;14.83;;;;;;;20.61;68.26;101938.03;5069128;28;20429;-71
2023/05/14 10:27:44;;;;;;;22.50;13.70;;;;;;;21.45;67.45;101923.81;5073132;28;20042;-71
2023/05/14 10:30:13;;;;;;;21.57;13.50;;;;;;;21.53;66.81;101923.44;5079159;28;20701;-71
2023/05/14 10:32:40;;;;;;;21.55;14.40;;;;;;;20.80;66.77;101925.75;5080379;28;20476;-71
2023/05/14 10:35:16;;;;;;;20.92;14.68;;;;;;;20.44;67.44;101920.28;5077633;28;20544;-70
2023/05/14 10:37:44;;;;;;;20.30;12.38;;;;;;;21.08;67.04;101919.53;5062458;28;20452;-71
2023/05/14 10:40:10;;;;;;;22.10;13.15;;;;;;;21.22;66.06;101918.22;5079234;28;20024;-71
2023/05/14 10:42:42;;;;;;;16.58;12.65;;;;;;;21.49;66.07;101913.84;5079567;28;20020;-71
2023/05/14 10:45:09;;;;;;;23.50;13.80;;;;;;;20.85;65.73;101909.16;5075340;28;20025;-71
2023/05/14 10:47:40;;;;;;;22.05;13.13;;;;;;;20.87;66.35;101897.78;5053391;28;20078;-71
2023/05/14 10:50:09;;;;;;;22.02;12.60;;;;;;;20.89;66.09;101904.00;5077698;28;20024;-71
2023/05/14 10:52:35;;;;;;;25.02;11.77;;;;;;;21.64;64.11;101908.63;5082885;28;20039;-70
2023/05/14 10:55:09;;;;;;;17.38;12.15;;;;;;;21.15;64.87;101892.41;5060096;28;20357;-70
2023/05/14 10:57:38;;;;;;;18.38;11.52;;;;;;;21.52;64.35;101907.81;5080230;28;20549;-71
2023/05/14 11:00:06;;;;;;;28.25;11.73;;;;;;;21.72;63.97;101897.97;5071581;28;20035;-71